Xainza, China
Current Conditions -  °F | °C
As of 8:50 AM on Saturday 22 Nov 2014 (Local Time) from VNKT Reporting Station
Haze Haze  
Wind Chill: 48°   Ceiling: Unl
Heat Index: 48°   Visibility: 6mi
Dew Point: 48°   Wind: 0mph
Humidity: 100%   Direction: NA
Pressure: 30.03"   Gusts: NA
Location:  30.95°N, 88.63°E
Report Text: VNKT 220050Z 00000KT 500 BR FEW015 09/09 Q1017 NOSIG
Loading
Personal Weather Stations






























Interactive Weather Map New forecast layout! Learn more

10-Day Weather Forecast

Advertisements
Track Severe Weather on mobile